Time;durP1;ratioP1;P1;durP2;ratioP2;P2;SDS_P1;SDS_P2;PMS_P1;PMS_P2;Temp;Humidity;BMP_temperature;BMP_pressure;BME280_temperature;BME280_humidity;BME280_pressure;Samples;Min_cycle;Max_cycle;Signal;HPM_P1;HPM_P2
2024/02/29 00:02:07;;;;;;;20.88;9.65;;;;;;;7.51;72.55;95147.38;5131063;27;20484;-81
2024/02/29 00:04:34;;;;;;;20.40;10.38;;;;;;;7.59;72.70;95165.78;5114098;27;20087;-80
2024/02/29 00:07:00;;;;;;;21.42;9.68;;;;;;;7.48;72.71;95160.50;5131239;27;20023;-80
2024/02/29 00:09:25;;;;;;;19.52;9.88;;;;;;;7.50;72.71;95170.75;5096976;27;20015;-80
2024/02/29 00:11:51;;;;;;;17.73;9.70;;;;;;;7.46;73.26;95164.94;5131012;27;20073;-81
2024/02/29 00:14:17;;;;;;;18.20;10.57;;;;;;;7.48;73.09;95165.66;5113990;27;20019;-81
2024/02/29 00:16:44;;;;;;;18.65;10.23;;;;;;;7.39;73.00;95150.75;5131001;27;20061;-81
2024/02/29 00:19:10;;;;;;;16.20;10.20;;;;;;;7.51;73.35;95170.63;5131030;27;20030;-81
2024/02/29 00:21:35;;;;;;;18.73;10.88;;;;;;;7.27;73.60;95143.78;5130827;27;20465;-81
2024/02/29 00:24:01;;;;;;;22.50;11.07;;;;;;;7.44;73.49;95161.66;5130793;27;20056;-81
2024/02/29 00:26:26;;;;;;;16.42;9.75;;;;;;;7.34;73.66;95169.16;5130815;27;20031;-81
2024/02/29 00:28:52;;;;;;;20.48;11.13;;;;;;;7.32;74.12;95152.06;5130706;27;20047;-81
2024/02/29 00:31:19;;;;;;;23.10;10.80;;;;;;;7.33;73.25;95146.81;5130600;27;20047;-81
2024/02/29 00:33:44;;;;;;;19.52;10.50;;;;;;;7.32;73.50;95176.16;5130839;27;20026;-81
2024/02/29 00:36:09;;;;;;;20.20;10.93;;;;;;;7.14;73.55;95134.25;5132034;27;20019;-81
2024/02/29 00:38:35;;;;;;;19.33;11.55;;;;;;;7.30;74.13;95174.59;5113479;27;20408;-81
2024/02/29 00:41:01;;;;;;;19.17;11.18;;;;;;;7.42;73.79;95184.16;5113532;28;20564;-81
2024/02/29 00:43:26;;;;;;;23.17;12.15;;;;;;;7.30;73.62;95166.84;5113465;28;20027;-81
2024/02/29 00:45:52;;;;;;;22.80;11.82;;;;;;;7.24;73.88;95154.31;5130678;27;20035;-81
2024/02/29 00:48:18;;;;;;;19.42;12.07;;;;;;;7.39;74.21;95174.03;5130589;28;20062;-81
2024/02/29 00:50:43;;;;;;;21.35;11.35;;;;;;;7.45;73.53;95171.03;5096590;28;20501;-79
2024/02/29 00:53:08;;;;;;;22.70;11.65;;;;;;;7.24;74.42;95167.25;5130747;28;20037;-80
2024/02/29 00:55:34;;;;;;;25.48;12.68;;;;;;;7.26;74.56;95168.81;5113554;28;20027;-81
2024/02/29 00:57:59;;;;;;;24.98;13.10;;;;;;;7.26;74.61;95171.41;5130770;28;20044;-80
2024/02/29 01:00:25;;;;;;;25.10;12.50;;;;;;;7.19;74.58;95161.53;5130448;27;20527;-79
2024/02/29 01:02:50;;;;;;;18.60;11.23;;;;;;;7.22;73.92;95146.69;5130698;27;20030;-80
2024/02/29 01:05:16;;;;;;;22.23;12.00;;;;;;;7.22;74.51;95161.38;5134771;27;20027;-81
2024/02/29 01:07:41;;;;;;;25.40;12.45;;;;;;;7.13;74.80;95178.25;5117635;27;20452;-81
2024/02/29 01:10:11;;;;;;;30.15;13.75;;;;;;;7.33;74.47;95182.19;5117987;27;20035;-81
2024/02/29 01:12:39;;;;;;;27.20;12.27;;;;;;;7.23;74.01;95168.19;5100791;27;20034;-81
2024/02/29 01:15:08;;;;;;;24.90;11.93;;;;;;;7.16;74.05;95176.34;5117798;27;20457;-81
2024/02/29 01:17:34;;;;;;;20.40;12.32;;;;;;;7.12;74.50;95182.59;5117537;27;20031;-81
2024/02/29 01:19:59;;;;;;;26.23;13.10;;;;;;;7.01;74.27;95179.88;5134414;27;20500;-81
2024/02/29 01:22:25;;;;;;;24.48;13.27;;;;;;;7.06;74.90;95187.34;5100117;27;20031;-81
2024/02/29 01:24:51;;;;;;;23.70;12.80;;;;;;;6.88;75.45;95184.13;5135541;27;20034;-80
2024/02/29 01:27:17;;;;;;;21.38;12.90;;;;;;;6.93;75.32;95185.50;5134064;27;20055;-81
2024/02/29 01:29:43;;;;;;;22.90;12.82;;;;;;;6.92;75.19;95185.63;5134267;27;20031;-80
2024/02/29 01:32:09;;;;;;;24.33;13.68;;;;;;;7.06;74.82;95177.84;5099997;27;20100;-81
2024/02/29 01:34:35;;;;;;;24.33;13.90;;;;;;;6.90;74.92;95154.72;5117177;27;20533;-80
2024/02/29 01:37:00;;;;;;;28.80;14.18;;;;;;;6.96;75.00;95179.31;5116858;27;20035;-80
2024/02/29 01:39:26;;;;;;;28.05;14.45;;;;;;;6.89;75.38;95180.66;5099752;27;20019;-81
2024/02/29 01:41:51;;;;;;;26.27;14.02;;;;;;;6.86;75.45;95175.69;5099754;27;20138;-81
2024/02/29 01:44:17;;;;;;;26.83;13.95;;;;;;;6.99;75.12;95175.72;5135115;27;20091;-81
2024/02/29 01:46:44;;;;;;;27.88;14.45;;;;;;;6.89;75.58;95175.50;5133866;27;20031;-81
2024/02/29 01:49:11;;;;;;;28.00;15.52;;;;;;;6.94;75.09;95163.94;5116567;27;20034;-79
2024/02/29 01:51:36;;;;;;;35.47;15.07;;;;;;;6.77;75.60;95168.47;5116745;27;20095;-81
2024/02/29 01:54:02;;;;;;;27.85;15.65;;;;;;;6.81;75.14;95154.47;5133810;27;20024;-81
2024/02/29 01:56:27;;;;;;;27.52;15.35;;;;;;;6.86;75.44;95161.00;5133517;27;20030;-81
2024/02/29 01:58:54;;;;;;;26.23;15.18;;;;;;;6.59;75.90;95158.38;5133742;27;20027;-81
2024/02/29 02:01:19;;;;;;;24.38;15.02;;;;;;;6.52;76.39;95156.25;5116493;27;20063;-81
2024/02/29 02:03:45;;;;;;;34.53;16.42;;;;;;;6.37;76.27;95138.22;5116390;27;20057;-81
2024/02/29 02:06:10;;;;;;;30.42;16.02;;;;;;;6.46;76.47;95165.22;5116377;27;20035;-81
2024/02/29 02:08:36;;;;;;;25.83;15.70;;;;;;;6.38;76.45;95157.09;5133414;27;20023;-81
2024/02/29 02:11:01;;;;;;;28.40;16.23;;;;;;;6.32;76.96;95168.63;5116298;27;20038;-81
2024/02/29 02:13:27;;;;;;;32.10;16.63;;;;;;;6.18;76.56;95125.59;5116185;27;20103;-81
2024/02/29 02:15:53;;;;;;;35.25;15.90;;;;;;;6.36;76.52;95166.72;5133210;27;20579;-80
2024/02/29 02:18:18;;;;;;;32.88;17.60;;;;;;;6.21;76.81;95163.28;5116062;27;20023;-79
2024/02/29 02:20:44;;;;;;;30.33;16.63;;;;;;;6.29;76.74;95180.88;5133189;27;20039;-80
2024/02/29 02:23:09;;;;;;;29.85;16.15;;;;;;;6.25;76.79;95178.50;5133311;27;20031;-81
2024/02/29 02:25:35;;;;;;;32.35;17.15;;;;;;;6.12;77.33;95174.97;5133190;27;20023;-81
2024/02/29 02:28:00;;;;;;;27.98;16.42;;;;;;;6.25;77.41;95181.09;5098848;27;20121;-80
2024/02/29 02:30:26;;;;;;;35.20;18.15;;;;;;;6.24;77.32;95186.31;5098863;27;20030;-81
2024/02/29 02:32:51;;;;;;;30.13;17.00;;;;;;;6.23;77.61;95177.75;5132791;27;20035;-81
2024/02/29 02:35:17;;;;;;;32.80;18.48;;;;;;;6.31;77.07;95166.16;5134180;27;20056;-81
2024/02/29 02:37:42;;;;;;;33.17;17.73;;;;;;;6.11;77.43;95152.69;5132948;27;20050;-81
2024/02/29 02:40:08;;;;;;;27.83;16.77;;;;;;;6.18;77.76;95173.78;5115673;27;20080;-81
2024/02/29 02:42:33;;;;;;;35.80;17.67;;;;;;;6.04;77.37;95167.72;5133003;27;20424;-81
2024/02/29 02:44:59;;;;;;;38.65;18.25;;;;;;;6.24;77.14;95173.41;5134036;27;20023;-80
2024/02/29 02:47:24;;;;;;;35.90;18.83;;;;;;;6.05;77.73;95153.06;5134250;27;20026;-80
2024/02/29 02:49:49;;;;;;;36.90;18.95;;;;;;;6.05;78.38;95163.41;5115592;27;20058;-81
2024/02/29 02:52:15;;;;;;;40.10;19.90;;;;;;;6.07;78.49;95171.03;5132772;27;20035;-81
2024/02/29 02:54:40;;;;;;;39.47;18.67;;;;;;;6.10;78.40;95163.09;5115637;27;20023;-81
2024/02/29 02:57:06;;;;;;;34.30;18.58;;;;;;;6.12;78.55;95154.34;5098257;27;20079;-81
2024/02/29 02:59:31;;;;;;;32.42;18.30;;;;;;;6.15;78.19;95158.50;5115547;27;20143;-81
2024/02/29 03:01:57;;;;;;;36.00;18.55;;;;;;;5.97;78.36;95144.97;5115370;27;20035;-79
2024/02/29 03:04:22;;;;;;;37.83;18.80;;;;;;;6.00;78.54;95148.19;5132425;27;20080;-81
2024/02/29 03:06:47;;;;;;;37.20;18.98;;;;;;;5.81;78.75;95135.50;5132439;27;20088;-81
2024/02/29 03:09:13;;;;;;;32.17;18.23;;;;;;;6.00;78.05;95153.34;5115263;27;20319;-81
2024/02/29 03:11:38;;;;;;;34.10;19.05;;;;;;;5.85;78.57;95143.91;5132469;27;20038;-81
2024/02/29 03:14:04;;;;;;;37.22;18.90;;;;;;;5.94;78.41;95150.31;5115041;27;20466;-81
2024/02/29 03:16:35;;;;;;;37.33;17.70;;;;;;;6.11;77.89;95173.34;5098108;27;20485;-81
2024/02/29 03:19:01;;;;;;;32.67;19.20;;;;;;;5.90;78.19;95144.44;5132312;27;20027;-81
2024/02/29 03:21:28;;;;;;;38.17;18.75;;;;;;;6.03;77.75;95149.75;5114988;27;20505;-81
2024/02/29 03:23:53;;;;;;;35.97;18.67;;;;;;;5.91;77.93;95156.44;5115275;27;20031;-80
2024/02/29 03:26:19;;;;;;;34.88;18.95;;;;;;;5.77;78.47;95149.50;5097640;27;20474;-81
2024/02/29 03:28:44;;;;;;;36.63;18.63;;;;;;;5.88;78.30;95155.78;5114969;27;20084;-81
2024/02/29 03:31:15;;;;;;;34.45;19.15;;;;;;;5.87;78.12;95154.13;5133070;27;20019;-81
2024/02/29 03:33:41;;;;;;;38.28;19.52;;;;;;;5.88;78.31;95156.63;5115149;27;20027;-80
2024/02/29 03:36:08;;;;;;;39.22;18.02;;;;;;;5.74;78.69;95139.38;5114731;27;20035;-82
2024/02/29 03:38:34;;;;;;;34.33;18.45;;;;;;;5.66;78.84;95145.91;5114846;27;20026;-82
2024/02/29 03:41:00;;;;;;;36.53;19.05;;;;;;;5.77;78.59;95154.66;5131673;27;20030;-81
2024/02/29 03:43:26;;;;;;;36.55;19.00;;;;;;;5.67;78.75;95138.06;5131560;27;20178;-81
2024/02/29 03:45:52;;;;;;;38.05;19.98;;;;;;;5.60;79.41;95153.06;5133102;27;20067;-81
2024/02/29 03:48:17;;;;;;;36.92;19.48;;;;;;;5.61;79.10;95146.16;5131445;27;20023;-81
2024/02/29 03:50:42;;;;;;;34.92;19.98;;;;;;;5.54;78.84;95126.81;5131662;27;20026;-82
2024/02/29 03:53:08;;;;;;;44.20;20.50;;;;;;;5.69;78.82;95143.97;5114523;27;20027;-82
2024/02/29 03:55:34;;;;;;;36.75;18.52;;;;;;;5.58;78.87;95134.28;5114411;27;20043;-81
2024/02/29 03:57:59;;;;;;;33.85;19.02;;;;;;;5.65;78.43;95150.22;5114415;27;20079;-81
2024/02/29 04:00:24;;;;;;;36.60;19.20;;;;;;;5.63;78.51;95157.22;5131424;27;20050;-81
2024/02/29 04:02:50;;;;;;;34.78;19.45;;;;;;;5.54;78.97;95147.44;5114271;27;20039;-81
2024/02/29 04:05:15;;;;;;;35.90;18.17;;;;;;;5.53;78.34;95125.16;5132485;27;20481;-82
2024/02/29 04:07:42;;;;;;;36.45;19.45;;;;;;;5.54;78.95;95150.00;5131352;27;20071;-81
2024/02/29 04:10:09;;;;;;;40.22;19.50;;;;;;;5.48;78.85;95137.47;5131227;27;20481;-81
2024/02/29 04:12:34;;;;;;;39.33;19.83;;;;;;;5.49;79.33;95154.59;5114088;27;20140;-81
2024/02/29 04:15:02;;;;;;;39.95;19.23;;;;;;;5.44;80.00;95146.31;5096942;27;20031;-82
2024/02/29 04:17:29;;;;;;;37.40;20.20;;;;;;;5.42;80.36;95148.97;5114356;27;20030;-81
2024/02/29 04:19:54;;;;;;;36.40;19.52;;;;;;;5.51;80.63;95137.28;5114001;27;20079;-80
2024/02/29 04:22:19;;;;;;;42.28;20.60;;;;;;;5.51;80.90;95139.88;5132340;27;20106;-81
2024/02/29 04:24:45;;;;;;;36.83;20.48;;;;;;;5.51;80.63;95119.25;5113924;27;20416;-81
2024/02/29 04:27:10;;;;;;;40.35;19.63;;;;;;;5.65;80.58;95150.22;5131123;27;20089;-82
2024/02/29 04:29:36;;;;;;;38.53;19.77;;;;;;;5.66;80.19;95131.28;5113882;27;20100;-81
2024/02/29 04:32:02;;;;;;;42.63;18.92;;;;;;;5.65;80.49;95144.22;5097039;27;20031;-81
2024/02/29 04:34:27;;;;;;;38.88;19.67;;;;;;;5.68;80.36;95124.25;5131028;27;20031;-80
2024/02/29 04:36:53;;;;;;;46.00;20.35;;;;;;;5.63;80.92;95120.28;5130941;27;20083;-81
2024/02/29 04:39:18;;;;;;;38.92;20.23;;;;;;;5.71;80.91;95112.94;5095966;27;20023;-82
2024/02/29 04:41:45;;;;;;;43.42;20.92;;;;;;;5.64;80.49;95120.22;5096676;27;20126;-81
2024/02/29 04:44:12;;;;;;;48.05;21.52;;;;;;;5.52;80.99;95108.06;5131945;27;20023;-81
2024/02/29 04:46:37;;;;;;;45.83;19.88;;;;;;;5.72;80.69;95130.91;5096811;28;20031;-82
2024/02/29 04:49:04;;;;;;;39.38;20.60;;;;;;;5.74;80.62;95118.75;5130673;28;20026;-82
2024/02/29 04:51:29;;;;;;;45.30;20.70;;;;;;;5.70;80.83;95111.28;5096925;28;20063;-81
2024/02/29 04:53:54;;;;;;;48.92;21.42;;;;;;;5.68;81.17;95113.13;5132009;27;20507;-81
2024/02/29 04:56:20;;;;;;;44.50;21.02;;;;;;;5.80;80.99;95123.53;5130777;28;20034;-81
2024/02/29 04:58:45;;;;;;;37.83;19.88;;;;;;;5.72;80.66;95099.16;5131946;27;20068;-82
2024/02/29 05:01:13;;;;;;;39.47;20.23;;;;;;;5.81;80.46;95127.78;5131944;27;20038;-81
2024/02/29 05:03:38;;;;;;;52.72;21.42;;;;;;;5.81;80.48;95112.31;5097177;28;20038;-81
2024/02/29 05:06:04;;;;;;;42.08;20.60;;;;;;;5.93;80.65;95139.13;5113573;28;20027;-82
2024/02/29 05:08:30;;;;;;;48.42;21.88;;;;;;;5.90;80.13;95123.00;5096437;28;20026;-81
2024/02/29 05:10:55;;;;;;;43.25;20.52;;;;;;;6.02;80.17;95137.78;5113525;28;20046;-81
2024/02/29 05:13:20;;;;;;;46.42;21.50;;;;;;;5.96;80.41;95135.53;5130525;28;20030;-81
2024/02/29 05:15:46;;;;;;;38.92;19.08;;;;;;;6.07;80.25;95138.31;5130500;27;20034;-82
2024/02/29 05:18:12;;;;;;;42.97;20.40;;;;;;;5.95;80.32;95128.75;5130655;28;20035;-81
2024/02/29 05:20:37;;;;;;;43.17;21.48;;;;;;;6.09;80.46;95141.63;5096371;28;20034;-81
2024/02/29 05:23:03;;;;;;;45.58;20.73;;;;;;;6.10;80.67;95145.91;5130572;28;20040;-81
2024/02/29 05:25:28;;;;;;;41.78;21.48;;;;;;;5.91;80.57;95122.09;5130350;28;20085;-80
2024/02/29 05:27:54;;;;;;;47.65;22.10;;;;;;;6.02;80.62;95143.75;5130325;28;20039;-82
2024/02/29 05:30:20;;;;;;;44.92;21.45;;;;;;;6.14;80.94;95147.34;5113528;28;20035;-81
2024/02/29 05:32:48;;;;;;;47.60;21.52;;;;;;;6.14;80.82;95137.03;5113553;28;20031;-81
2024/02/29 05:35:14;;;;;;;50.55;21.67;;;;;;;6.23;80.99;95146.78;5129206;28;20559;-81
2024/02/29 05:37:39;;;;;;;52.10;22.13;;;;;;;6.37;80.74;95155.47;5111700;28;20031;-81
2024/02/29 05:40:23;;;;;;;43.05;20.63;;;;;;;6.21;81.26;95158.97;5129455;27;20036;-81
2024/02/29 05:42:48;;;;;;;50.85;22.27;;;;;;;6.21;81.29;95152.97;5129330;28;20042;-81
2024/02/29 05:45:14;;;;;;;50.92;22.42;;;;;;;6.20;81.81;95159.88;5112857;28;20050;-82
2024/02/29 05:47:39;;;;;;;47.92;22.73;;;;;;;6.15;81.86;95153.34;5112264;28;20503;-81
2024/02/29 05:50:06;;;;;;;54.55;23.08;;;;;;;6.22;82.02;95154.66;5132163;27;20027;-82
2024/02/29 05:52:31;;;;;;;50.30;21.25;;;;;;;6.19;82.26;95155.66;5133878;27;20031;-81
2024/02/29 05:54:56;;;;;;;52.53;23.35;;;;;;;6.29;82.64;95155.91;5133989;27;20026;-82
2024/02/29 05:57:30;;;;;;;53.58;24.85;;;;;;;6.39;82.30;95169.09;5133978;27;20095;-81
2024/02/29 05:59:56;;;;;;;53.35;23.23;;;;;;;6.25;82.74;95157.03;5134069;27;20023;-82
2024/02/29 06:02:22;;;;;;;46.67;21.33;;;;;;;6.48;82.17;95165.94;5115972;27;20107;-81
2024/02/29 06:04:47;;;;;;;58.00;23.80;;;;;;;6.46;81.86;95163.47;5116835;27;20027;-82
2024/02/29 06:07:13;;;;;;;49.00;23.08;;;;;;;6.43;82.39;95167.97;5135152;27;20027;-82
2024/02/29 06:09:41;;;;;;;61.20;24.13;;;;;;;6.32;82.04;95134.25;5133633;27;20084;-81
2024/02/29 06:12:07;;;;;;;54.15;22.98;;;;;;;6.47;82.31;95156.56;5100128;27;20031;-82
2024/02/29 06:14:32;;;;;;;49.50;22.80;;;;;;;6.49;81.97;95162.44;5134918;27;20038;-81
2024/02/29 06:16:58;;;;;;;53.72;22.35;;;;;;;6.62;81.67;95168.50;5134984;27;20031;-82
2024/02/29 06:19:24;;;;;;;45.88;20.77;;;;;;;6.55;81.07;95130.28;5116700;27;20027;-80
2024/02/29 06:21:49;;;;;;;47.28;22.50;;;;;;;6.64;81.33;95155.53;5133331;27;20096;-82
2024/02/29 06:24:18;;;;;;;47.28;21.83;;;;;;;6.60;81.24;95162.63;5116353;27;20023;-82
2024/02/29 06:26:44;;;;;;;49.20;22.38;;;;;;;6.72;81.37;95163.63;5116551;27;20035;-82
2024/02/29 06:29:09;;;;;;;45.63;21.13;;;;;;;6.76;81.26;95159.91;5134550;27;20015;-82
2024/02/29 06:31:34;;;;;;;46.53;21.80;;;;;;;6.84;80.72;95165.44;5134530;27;20527;-83
2024/02/29 06:34:00;;;;;;;47.85;20.42;;;;;;;6.91;80.66;95163.31;5116183;27;20030;-82
2024/02/29 06:36:25;;;;;;;36.22;18.45;;;;;;;6.91;80.69;95158.97;5115770;27;20040;-82
2024/02/29 06:38:51;;;;;;;41.53;19.58;;;;;;;7.09;79.98;95161.31;5116035;27;20032;-82
2024/02/29 06:41:17;;;;;;;35.10;19.20;;;;;;;7.01;79.98;95159.19;5134112;27;20397;-82
2024/02/29 06:43:42;;;;;;;33.63;18.42;;;;;;;7.05;80.22;95170.16;5132932;27;20080;-81
2024/02/29 06:46:10;;;;;;;36.45;18.52;;;;;;;7.16;79.88;95172.94;5115703;27;20027;-82
2024/02/29 06:48:35;;;;;;;42.58;18.15;;;;;;;7.22;79.42;95169.13;5132799;27;20019;-82
2024/02/29 06:51:01;;;;;;;35.47;17.40;;;;;;;7.29;79.50;95168.59;5132984;27;20023;-82
2024/02/29 06:53:26;;;;;;;34.75;18.02;;;;;;;7.34;79.18;95156.22;5133057;27;20038;-82
2024/02/29 06:55:52;;;;;;;28.67;17.10;;;;;;;7.35;78.60;95134.63;5115846;27;20027;-80
2024/02/29 06:58:19;;;;;;;33.53;16.65;;;;;;;7.61;79.24;95168.28;5116045;27;20035;-82
2024/02/29 07:00:45;;;;;;;28.27;16.50;;;;;;;7.59;78.28;95149.47;5115236;27;20042;-82
2024/02/29 07:03:10;;;;;;;30.30;16.88;;;;;;;7.89;77.80;95162.13;5134153;27;20479;-83
2024/02/29 07:05:36;;;;;;;27.73;15.73;;;;;;;7.93;77.73;95179.09;5098386;27;20024;-83
2024/02/29 07:08:02;;;;;;;25.98;14.73;;;;;;;7.97;77.52;95180.56;5098515;27;20027;-82
2024/02/29 07:10:27;;;;;;;26.40;15.95;;;;;;;7.91;76.96;95180.97;5115479;27;20031;-82
2024/02/29 07:12:53;;;;;;;27.23;16.17;;;;;;;7.88;77.19;95175.97;5133995;27;20409;-82
2024/02/29 07:15:18;;;;;;;21.20;14.07;;;;;;;7.92;77.17;95164.50;5132244;27;20496;-82
2024/02/29 07:17:44;;;;;;;26.77;15.18;;;;;;;8.11;76.83;95160.66;5115512;27;20385;-82
2024/02/29 07:20:13;;;;;;;21.17;13.55;;;;;;;8.07;76.75;95145.34;5133483;27;20428;-80
2024/02/29 07:22:38;;;;;;;21.55;13.52;;;;;;;8.33;76.29;95150.53;5115457;27;20035;-82
2024/02/29 07:25:04;;;;;;;25.08;15.45;;;;;;;8.31;76.39;95160.16;5133459;27;20159;-80
2024/02/29 07:27:29;;;;;;;29.77;17.80;;;;;;;8.32;76.51;95155.81;5132074;27;20497;-82
2024/02/29 07:29:55;;;;;;;95.25;40.35;;;;;;;8.27;76.27;95156.09;5133614;27;20481;-81
2024/02/29 07:32:20;;;;;;;48.63;26.15;;;;;;;8.50;75.97;95152.00;5132054;27;20530;-82
2024/02/29 07:34:46;;;;;;;24.95;15.32;;;;;;;8.43;75.77;95140.41;5133191;27;20023;-83
2024/02/29 07:37:11;;;;;;;23.45;15.43;;;;;;;8.36;75.83;95137.38;5131951;27;20062;-83
2024/02/29 07:39:37;;;;;;;27.23;15.40;;;;;;;8.35;75.56;95140.06;5115075;27;20023;-84
2024/02/29 07:42:03;;;;;;;27.70;15.27;;;;;;;8.24;76.45;95151.16;5132008;27;20031;-83
2024/02/29 07:44:29;;;;;;;22.92;15.38;;;;;;;8.37;76.69;95151.97;5097609;27;20023;-82
2024/02/29 07:46:54;;;;;;;22.67;15.48;;;;;;;8.57;75.53;95147.22;5114735;27;20117;-83
2024/02/29 07:49:20;;;;;;;21.85;14.80;;;;;;;8.46;75.81;95160.88;5132812;27;20107;-81
2024/02/29 07:51:46;;;;;;;25.38;14.30;;;;;;;8.47;75.56;95153.03;5114573;27;20549;-83
2024/02/29 07:54:11;;;;;;;21.13;13.60;;;;;;;8.29;76.38;95149.91;5114499;27;20047;-82
2024/02/29 07:56:40;;;;;;;19.80;12.73;;;;;;;8.37;76.40;95148.56;5097503;27;20031;-83
2024/02/29 07:59:06;;;;;;;18.98;12.27;;;;;;;8.38;75.39;95132.91;5114605;27;20019;-83
2024/02/29 08:01:31;;;;;;;23.17;13.45;;;;;;;8.59;74.62;95125.44;5132861;27;20047;-83
2024/02/29 08:03:57;;;;;;;19.80;12.95;;;;;;;8.68;75.10;95136.94;5131506;27;20028;-81
2024/02/29 08:06:22;;;;;;;21.40;12.85;;;;;;;8.61;74.58;95149.50;5132716;27;20079;-83
2024/02/29 08:08:48;;;;;;;18.90;12.57;;;;;;;8.66;74.47;95121.50;5132795;27;20445;-83
2024/02/29 08:11:13;;;;;;;19.02;12.65;;;;;;;8.73;74.72;95132.25;5131431;27;20031;-83
2024/02/29 08:13:39;;;;;;;19.60;13.20;;;;;;;8.71;74.56;95123.75;5113220;27;20408;-83
2024/02/29 08:16:04;;;;;;;18.52;12.38;;;;;;;8.87;74.68;95119.16;5114440;27;20027;-83
2024/02/29 08:18:30;;;;;;;28.73;17.48;;;;;;;8.68;74.88;95111.03;5131462;27;20023;-83
2024/02/29 08:20:55;;;;;;;39.67;23.73;;;;;;;8.50;76.58;95120.91;5114260;27;20027;-82
2024/02/29 08:23:21;;;;;;;34.13;22.85;;;;;;;8.54;76.82;95111.16;5131112;27;20439;-82
2024/02/29 08:25:46;;;;;;;38.17;23.02;;;;;;;8.51;76.57;95099.25;5132331;27;20023;-83
2024/02/29 08:28:11;;;;;;;32.97;20.23;;;;;;;8.49;76.70;95099.34;5096627;27;20086;-84
2024/02/29 08:30:37;;;;;;;33.88;21.08;;;;;;;8.57;76.38;95079.88;5097049;27;20023;-83
2024/02/29 08:33:02;;;;;;;27.38;17.23;;;;;;;8.47;76.65;95101.25;5131061;27;20069;-82
2024/02/29 08:35:29;;;;;;;28.92;17.00;;;;;;;8.73;75.47;95114.13;5131018;27;20045;-83
2024/02/29 08:37:54;;;;;;;28.35;17.63;;;;;;;8.71;75.89;95115.97;5132590;27;20027;-83
2024/02/29 08:40:20;;;;;;;28.40;18.48;;;;;;;8.54;76.76;95106.81;5132068;27;20031;-83
2024/02/29 08:42:45;;;;;;;27.48;16.98;;;;;;;8.71;76.10;95097.84;5113699;27;20545;-82
2024/02/29 08:45:11;;;;;;;23.30;15.35;;;;;;;8.37;76.99;95056.19;5113742;27;20037;-83
2024/02/29 08:47:37;;;;;;;22.02;14.05;;;;;;;8.98;75.03;95082.09;5113830;27;20069;-83
2024/02/29 08:50:03;;;;;;;24.75;14.93;;;;;;;9.22;74.39;95091.63;5113704;28;20493;-83
2024/02/29 08:52:30;;;;;;;26.13;16.10;;;;;;;9.34;73.62;95101.94;5113982;28;20023;-83
2024/02/29 08:54:56;;;;;;;23.77;14.60;;;;;;;9.26;73.71;95100.84;5113842;28;20491;-82
2024/02/29 08:57:22;;;;;;;23.23;14.23;;;;;;;9.03;74.12;95089.56;5130728;28;20032;-82
2024/02/29 08:59:47;;;;;;;25.02;15.02;;;;;;;9.13;73.64;95083.56;5130711;27;20424;-83
2024/02/29 09:02:13;;;;;;;22.48;13.88;;;;;;;9.23;73.70;95088.94;5130767;28;20095;-83
2024/02/29 09:04:38;;;;;;;21.02;13.48;;;;;;;9.37;72.45;95099.09;5113946;28;20023;-83
2024/02/29 09:07:04;;;;;;;19.27;12.65;;;;;;;9.42;71.25;95090.16;5113596;28;20072;-83
2024/02/29 09:09:29;;;;;;;18.75;12.10;;;;;;;9.49;70.90;95088.78;5113338;28;20034;-82
2024/02/29 09:11:56;;;;;;;19.38;11.25;;;;;;;9.58;70.28;95088.94;5130522;28;20039;-83
2024/02/29 09:14:21;;;;;;;14.60;10.95;;;;;;;9.67;69.50;95082.22;5130358;27;20015;-82
2024/02/29 09:16:46;;;;;;;20.63;10.98;;;;;;;9.77;69.53;95096.13;5113396;28;20059;-83
2024/02/29 09:19:12;;;;;;;17.08;11.25;;;;;;;9.73;69.53;95086.13;5131679;27;20034;-83
2024/02/29 09:21:37;;;;;;;16.23;10.68;;;;;;;9.94;68.94;95101.81;5113269;28;20039;-83
2024/02/29 09:24:03;;;;;;;16.55;10.57;;;;;;;9.79;69.30;95098.63;5130719;27;20032;-80
2024/02/29 09:26:29;;;;;;;18.50;10.90;;;;;;;9.78;68.96;95110.78;5134457;27;20035;-83
2024/02/29 09:28:54;;;;;;;17.50;11.52;;;;;;;9.75;68.40;95092.84;5117105;27;20112;-81
2024/02/29 09:31:20;;;;;;;15.50;10.18;;;;;;;9.73;68.31;95104.28;5134093;27;20523;-83
2024/02/29 09:33:46;;;;;;;16.90;10.65;;;;;;;9.78;68.50;95108.19;5134426;27;20034;-81
2024/02/29 09:36:11;;;;;;;17.02;11.00;;;;;;;9.77;68.58;95103.91;5134321;27;20371;-84
2024/02/29 09:38:37;;;;;;;17.67;11.13;;;;;;;9.90;68.10;95114.22;5117128;27;20076;-83
2024/02/29 09:41:04;;;;;;;19.20;11.43;;;;;;;9.83;68.77;95113.88;5135513;27;20485;-82
2024/02/29 09:43:30;;;;;;;15.55;11.65;;;;;;;9.73;68.86;95086.94;5117229;27;20431;-82
2024/02/29 09:45:55;;;;;;;19.23;11.95;;;;;;;9.91;68.06;95089.91;5117183;27;20029;-81
2024/02/29 09:48:22;;;;;;;17.85;11.20;;;;;;;10.00;68.05;95109.16;5117069;27;20023;-82
2024/02/29 09:50:47;;;;;;;18.90;10.45;;;;;;;10.01;67.28;95096.06;5100449;27;20122;-81
2024/02/29 09:53:13;;;;;;;17.33;9.80;;;;;;;9.95;67.02;95086.16;5099691;27;20145;-83
2024/02/29 09:55:38;;;;;;;17.15;10.55;;;;;;;9.84;67.34;95062.78;5099825;27;20524;-83
2024/02/29 09:58:04;;;;;;;14.85;9.75;;;;;;;10.16;67.28;95091.47;5116775;27;20038;-83
2024/02/29 10:00:30;;;;;;;15.00;9.93;;;;;;;10.25;66.47;95101.16;5116526;27;20027;-82
2024/02/29 10:02:56;;;;;;;16.42;9.77;;;;;;;10.41;66.60;95107.78;5117064;27;20066;-83
2024/02/29 10:05:21;;;;;;;19.25;10.30;;;;;;;10.47;65.58;95094.31;5099782;27;20047;-82
2024/02/29 10:07:47;;;;;;;15.60;9.85;;;;;;;10.57;65.63;95097.84;5133713;27;20031;-83
2024/02/29 10:10:13;;;;;;;15.07;9.43;;;;;;;10.79;65.34;95096.19;5133643;27;20061;-82
2024/02/29 10:12:39;;;;;;;15.20;10.07;;;;;;;10.81;64.90;95095.13;5099804;27;20536;-83
2024/02/29 10:15:09;;;;;;;17.48;10.13;;;;;;;10.62;65.70;95095.72;5116580;27;20038;-82
2024/02/29 10:17:38;;;;;;;16.10;11.20;;;;;;;10.66;65.89;95097.13;5133661;27;20058;-83
2024/02/29 10:20:12;;;;;;;17.27;11.60;;;;;;;10.82;65.32;95091.56;5099828;27;20465;-83
2024/02/29 10:22:41;;;;;;;16.38;10.73;;;;;;;11.11;63.93;95091.00;5116900;27;20027;-83
2024/02/29 10:25:11;;;;;;;16.60;10.68;;;;;;;11.17;63.27;95091.34;5099389;27;20027;-83
2024/02/29 10:27:37;;;;;;;19.27;12.03;;;;;;;11.17;64.19;95099.16;5099705;27;20215;-83
2024/02/29 10:30:04;;;;;;;17.25;10.80;;;;;;;11.29;63.29;95089.50;5133305;27;20273;-83
2024/02/29 10:32:31;;;;;;;15.35;10.30;;;;;;;11.38;63.34;95093.97;5116404;27;20035;-84
2024/02/29 10:34:56;;;;;;;16.25;10.27;;;;;;;11.43;62.66;95080.59;5116748;27;20043;-83
2024/02/29 10:37:21;;;;;;;16.45;10.88;;;;;;;11.59;61.98;95072.34;5097944;27;20042;-83
2024/02/29 10:39:47;;;;;;;16.20;10.57;;;;;;;11.67;61.09;95069.09;5098891;27;20428;-84
2024/02/29 10:42:12;;;;;;;16.48;10.98;;;;;;;11.86;60.79;95071.84;5115743;27;20523;-84
2024/02/29 10:44:39;;;;;;;17.75;12.65;;;;;;;11.74;61.98;95070.25;5116000;27;20034;-84
2024/02/29 10:47:07;;;;;;;16.85;11.60;;;;;;;11.64;61.53;95057.16;5133089;27;20046;-83
2024/02/29 10:49:38;;;;;;;16.77;11.35;;;;;;;11.63;61.55;95061.53;5132900;27;20050;-83
2024/02/29 10:52:09;;;;;;;15.77;10.68;;;;;;;11.57;61.58;95067.25;5132977;27;20047;-83
2024/02/29 10:55:05;;;;;;;18.13;10.57;;;;;;;11.82;61.53;95055.63;5115689;27;20438;-83
2024/02/29 10:57:48;;;;;;;16.98;12.32;;;;;;;11.93;60.64;95054.78;5133058;27;20035;-84
2024/02/29 11:00:14;;;;;;;15.07;10.02;;;;;;;11.78;60.80;95049.06;5133978;27;20437;-83
2024/02/29 11:02:39;;;;;;;18.38;11.73;;;;;;;12.09;59.71;95041.28;5132941;27;20031;-83
2024/02/29 11:05:05;;;;;;;15.23;10.15;;;;;;;11.99;59.90;95046.44;5115659;27;20080;-84
2024/02/29 11:07:32;;;;;;;13.73;9.63;;;;;;;12.32;58.69;95035.88;5115528;27;20038;-83
2024/02/29 11:09:57;;;;;;;14.35;9.50;;;;;;;12.24;59.18;95037.34;5115732;27;20059;-83
2024/02/29 11:12:26;;;;;;;15.50;10.38;;;;;;;12.32;59.32;95035.88;5098506;27;20043;-84
2024/02/29 11:14:53;;;;;;;15.82;9.98;;;;;;;12.59;58.59;95037.88;5132676;27;20031;-83
2024/02/29 11:17:18;;;;;;;17.40;10.10;;;;;;;12.53;58.70;95024.41;5115607;27;20035;-84
2024/02/29 11:19:47;;;;;;;12.90;9.02;;;;;;;12.59;57.39;95015.25;5132625;27;20043;-83